Gillette Campbell County Airport Gillette US
ICAO: KGCC
IATA: GCC
Category: Medium
Scheduled Services: Yes

Elevation: 4365 ft
TransAlt. 18000 ft.

Airport Communications:
ASOS:124.175
DENVER CNTR:135.6
CTAF:118.5
GND:121.7
CASPER RDO:122.3
TWR:118.5
UNICOM:122.95

KGCC Zoom In..

If Map Doesn't Load, Click Here

Runways:

(A) RW 03 length 5803 ft width 75 ft
---- / hdg 26

(B) RW 16 length 7501 ft width 150 ft
---- / hdg 158

(C) RW 21 length 5803 ft width 75 ft
---- / hdg 206

(D) RW 34 length 7501 ft width 150 ft
ILS 110.10 / hdg 338

Location; KGCC
Day. 24 / Time. 05.53 Zulu
* Altimeter: 29.99
* Temperature: 08° c. 46.4°f.
* Wind from: 320° Speed 08 kn.
Dewpoint: 06° c.
Visibility: 10 Statute Miles.
Clouds: Overcast 800 ft.

KGCC 240553Z AUTO 32008KT 10SM OVC008 08/06 A2999 RMK AO2 SLP134 T00780061 10111 20072 53014


Wind From 320°
Speed 08 kn.

 
 
jpsmedia.com for Web Design worldairports.se 2018   terms of use